N12215 KRNM-KHHR
Flight info
| Callsign | N12215 |
|---|---|
| Flight time | 0h 52m |
| Altitude | 6000 |
| Route | OCN V23 SLI WELLZ |
| Aircraft | C172/L-VGD/C |
Departure
| Time | 2026-04-25 22:05 |
|---|---|
| Airport | Ramona Airport (KRNM) |
Arrival
| Time | 2026-04-25 22:57 |
|---|---|
| Airport | Jack Northrop Field Hawthorne Municipal Airport (KHHR) |
| Time | Latitude | Longitude | Altitude | Speed | Heading |
|---|---|---|---|---|---|
| 2026-04-25 21:55 | 33.03930 | -116.90803 | 1389 ft | 0 kts | 275° |
| 2026-04-25 22:02 | 33.03903 | -116.90820 | 1388 ft | 10 kts | 180° |
| 2026-04-25 22:02 | 33.03876 | -116.90760 | 1387 ft | 7 kts | 102° |
| 2026-04-25 22:02 | 33.03856 | -116.90742 | 1387 ft | 0 kts | 163° |
| 2026-04-25 22:03 | 33.03836 | -116.90739 | 1387 ft | 8 kts | 178° |
| 2026-04-25 22:03 | 33.03807 | -116.90781 | 1386 ft | 5 kts | 275° |
| 2026-04-25 22:03 | 33.03820 | -116.90877 | 1387 ft | 32 kts | 278° |
| 2026-04-25 22:03 | 33.03879 | -116.91251 | 1460 ft | 49 kts | 282° |
| 2026-04-25 22:04 | 33.03945 | -116.91692 | 1525 ft | 57 kts | 274° |
| 2026-04-25 22:04 | 33.04010 | -116.92180 | 1627 ft | 64 kts | 276° |
| 2026-04-25 22:04 | 33.04057 | -116.92754 | 1761 ft | 67 kts | 255° |
| 2026-04-25 22:04 | 33.04013 | -116.93303 | 1906 ft | 68 kts | 256° |
| 2026-04-25 22:05 | 33.03999 | -116.93869 | 2041 ft | 69 kts | 265° |
| 2026-04-25 22:05 | 33.04016 | -116.94442 | 2191 ft | 68 kts | 264° |
| 2026-04-25 22:05 | 33.04037 | -116.95010 | 2332 ft | 69 kts | 265° |
| 2026-04-25 22:05 | 33.04077 | -116.95583 | 2464 ft | 70 kts | 274° |
| 2026-04-25 22:06 | 33.04227 | -116.96149 | 2586 ft | 72 kts | 282° |
| 2026-04-25 22:06 | 33.04424 | -116.96719 | 2713 ft | 77 kts | 287° |
| 2026-04-25 22:06 | 33.04652 | -116.97305 | 2850 ft | 79 kts | 288° |
| 2026-04-25 22:06 | 33.04891 | -116.97884 | 3006 ft | 78 kts | 289° |
| 2026-04-25 22:07 | 33.05137 | -116.98465 | 3156 ft | 78 kts | 290° |
| 2026-04-25 22:07 | 33.05306 | -116.98859 | 3248 ft | 79 kts | 291° |
| 2026-04-25 22:07 | 33.05640 | -116.99640 | 3483 ft | 79 kts | 290° |
| 2026-04-25 22:07 | 33.05884 | -117.00219 | 3639 ft | 79 kts | 289° |
| 2026-04-25 22:08 | 33.06136 | -117.00816 | 3785 ft | 80 kts | 289° |
| 2026-04-25 22:08 | 33.06387 | -117.01401 | 3940 ft | 79 kts | 289° |
| 2026-04-25 22:08 | 33.06644 | -117.01997 | 4081 ft | 80 kts | 289° |
| 2026-04-25 22:08 | 33.06900 | -117.02585 | 4213 ft | 80 kts | 289° |
| 2026-04-25 22:09 | 33.07159 | -117.03178 | 4353 ft | 80 kts | 290° |
| 2026-04-25 22:09 | 33.07418 | -117.03770 | 4487 ft | 80 kts | 290° |
| 2026-04-25 22:09 | 33.07679 | -117.04366 | 4617 ft | 81 kts | 290° |
| 2026-04-25 22:09 | 33.07939 | -117.04960 | 4743 ft | 82 kts | 289° |
| 2026-04-25 22:10 | 33.08200 | -117.05557 | 4879 ft | 81 kts | 289° |
| 2026-04-25 22:10 | 33.08463 | -117.06155 | 4997 ft | 83 kts | 290° |
| 2026-04-25 22:10 | 33.08728 | -117.06754 | 5136 ft | 82 kts | 290° |
| 2026-04-25 22:10 | 33.08994 | -117.07352 | 5245 ft | 82 kts | 290° |
| 2026-04-25 22:11 | 33.09264 | -117.07970 | 5359 ft | 84 kts | 290° |
| 2026-04-25 22:11 | 33.09532 | -117.08578 | 5499 ft | 83 kts | 290° |
| 2026-04-25 22:11 | 33.09795 | -117.09183 | 5623 ft | 83 kts | 289° |
| 2026-04-25 22:11 | 33.10064 | -117.09797 | 5757 ft | 82 kts | 289° |
| 2026-04-25 22:12 | 33.10331 | -117.10410 | 5875 ft | 84 kts | 289° |
| 2026-04-25 22:12 | 33.10601 | -117.11024 | 5959 ft | 84 kts | 293° |
| 2026-04-25 22:12 | 33.10890 | -117.11666 | 5976 ft | 93 kts | 291° |
| 2026-04-25 22:12 | 33.11099 | -117.12137 | 5979 ft | 102 kts | 293° |
| 2026-04-25 22:13 | 33.11591 | -117.13193 | 5978 ft | 115 kts | 296° |
| 2026-04-25 22:13 | 33.11990 | -117.14052 | 5976 ft | 121 kts | 295° |
| 2026-04-25 22:13 | 33.12391 | -117.14932 | 5974 ft | 120 kts | 295° |
| 2026-04-25 22:13 | 33.12783 | -117.15807 | 5972 ft | 119 kts | 295° |
| 2026-04-25 22:14 | 33.13172 | -117.16692 | 5971 ft | 119 kts | 294° |
| 2026-04-25 22:14 | 33.13553 | -117.17560 | 5970 ft | 118 kts | 294° |
| 2026-04-25 22:14 | 33.13931 | -117.18426 | 5969 ft | 118 kts | 294° |
| 2026-04-25 22:14 | 33.14307 | -117.19292 | 5970 ft | 118 kts | 294° |
| 2026-04-25 22:15 | 33.14684 | -117.20158 | 5969 ft | 118 kts | 294° |
| 2026-04-25 22:15 | 33.15064 | -117.21030 | 5969 ft | 117 kts | 294° |
| 2026-04-25 22:15 | 33.15443 | -117.21902 | 5968 ft | 117 kts | 294° |
| 2026-04-25 22:16 | 33.16201 | -117.23645 | 5971 ft | 119 kts | 294° |
| 2026-04-25 22:16 | 33.16583 | -117.24526 | 5970 ft | 121 kts | 294° |
| 2026-04-25 22:16 | 33.16974 | -117.25424 | 5968 ft | 121 kts | 294° |
| 2026-04-25 22:16 | 33.17361 | -117.26314 | 5969 ft | 122 kts | 294° |
| 2026-04-25 22:17 | 33.17755 | -117.27219 | 5968 ft | 122 kts | 294° |
| 2026-04-25 22:17 | 33.18145 | -117.28117 | 5968 ft | 122 kts | 294° |
| 2026-04-25 22:17 | 33.18538 | -117.29024 | 5970 ft | 123 kts | 294° |
| 2026-04-25 22:17 | 33.18931 | -117.29924 | 5969 ft | 122 kts | 294° |
| 2026-04-25 22:18 | 33.19318 | -117.30817 | 5971 ft | 121 kts | 294° |
| 2026-04-25 22:18 | 33.19703 | -117.31705 | 5971 ft | 121 kts | 294° |
| 2026-04-25 22:18 | 33.20092 | -117.32601 | 5969 ft | 121 kts | 294° |
| 2026-04-25 22:18 | 33.20478 | -117.33492 | 5968 ft | 121 kts | 294° |
| 2026-04-25 22:19 | 33.20860 | -117.34373 | 5968 ft | 120 kts | 294° |
| 2026-04-25 22:19 | 33.21245 | -117.35261 | 5966 ft | 120 kts | 294° |
| 2026-04-25 22:19 | 33.21631 | -117.36151 | 5965 ft | 120 kts | 294° |
| 2026-04-25 22:19 | 33.22018 | -117.37043 | 5965 ft | 120 kts | 294° |
| 2026-04-25 22:20 | 33.22398 | -117.37923 | 5965 ft | 119 kts | 294° |
| 2026-04-25 22:20 | 33.22777 | -117.38799 | 5965 ft | 119 kts | 294° |
| 2026-04-25 22:20 | 33.23159 | -117.39681 | 5965 ft | 119 kts | 294° |
| 2026-04-25 22:20 | 33.23543 | -117.40567 | 5963 ft | 119 kts | 294° |
| 2026-04-25 22:21 | 33.23924 | -117.41444 | 5963 ft | 119 kts | 295° |
| 2026-04-25 22:21 | 33.24452 | -117.42223 | 5962 ft | 121 kts | 310° |
| 2026-04-25 22:21 | 33.25050 | -117.42928 | 5963 ft | 121 kts | 311° |
| 2026-04-25 22:21 | 33.25656 | -117.43629 | 5963 ft | 121 kts | 311° |
| 2026-04-25 22:22 | 33.26269 | -117.44340 | 5964 ft | 121 kts | 312° |
| 2026-04-25 22:22 | 33.26874 | -117.45042 | 5965 ft | 121 kts | 311° |
| 2026-04-25 22:22 | 33.27477 | -117.45743 | 5967 ft | 121 kts | 311° |
| 2026-04-25 22:22 | 33.28082 | -117.46448 | 5965 ft | 121 kts | 312° |
| 2026-04-25 22:23 | 33.28686 | -117.47151 | 5964 ft | 121 kts | 311° |
| 2026-04-25 22:23 | 33.29292 | -117.47856 | 5966 ft | 121 kts | 312° |
| 2026-04-25 22:23 | 33.29891 | -117.48553 | 5962 ft | 121 kts | 311° |
| 2026-04-25 22:23 | 33.30503 | -117.49267 | 5962 ft | 121 kts | 311° |
| 2026-04-25 22:24 | 33.31109 | -117.49972 | 5961 ft | 122 kts | 311° |
| 2026-04-25 22:24 | 33.31712 | -117.50676 | 5962 ft | 122 kts | 312° |
| 2026-04-25 22:24 | 33.32319 | -117.51384 | 5961 ft | 121 kts | 312° |
| 2026-04-25 22:24 | 33.32924 | -117.52089 | 5965 ft | 121 kts | 311° |
| 2026-04-25 22:25 | 33.33525 | -117.52793 | 5965 ft | 121 kts | 310° |
| 2026-04-25 22:25 | 33.34094 | -117.53535 | 5979 ft | 120 kts | 310° |
| 2026-04-25 22:25 | 33.34695 | -117.54227 | 6004 ft | 119 kts | 312° |
| 2026-04-25 22:25 | 33.35305 | -117.54920 | 5972 ft | 123 kts | 312° |
| 2026-04-25 22:26 | 33.35927 | -117.55630 | 5960 ft | 122 kts | 312° |
| 2026-04-25 22:26 | 33.36531 | -117.56324 | 5972 ft | 121 kts | 312° |
| 2026-04-25 22:26 | 33.37147 | -117.57035 | 5964 ft | 122 kts | 312° |
| 2026-04-25 22:26 | 33.37753 | -117.57738 | 5957 ft | 122 kts | 312° |
| 2026-04-25 22:27 | 33.38366 | -117.58449 | 5956 ft | 121 kts | 311° |
| 2026-04-25 22:27 | 33.38967 | -117.59148 | 5952 ft | 121 kts | 311° |
| 2026-04-25 22:27 | 33.39574 | -117.59857 | 5954 ft | 122 kts | 311° |
| 2026-04-25 22:27 | 33.40194 | -117.60581 | 5958 ft | 124 kts | 312° |
| 2026-04-25 22:28 | 33.40810 | -117.61303 | 5954 ft | 125 kts | 312° |
| 2026-04-25 22:28 | 33.41433 | -117.62030 | 5958 ft | 125 kts | 311° |
| 2026-04-25 22:28 | 33.42056 | -117.62757 | 5966 ft | 126 kts | 312° |
| 2026-04-25 22:28 | 33.42692 | -117.63498 | 5959 ft | 126 kts | 311° |
| 2026-04-25 22:29 | 33.43315 | -117.64227 | 5955 ft | 125 kts | 312° |
| 2026-04-25 22:29 | 33.43935 | -117.64953 | 5953 ft | 125 kts | 312° |
| 2026-04-25 22:29 | 33.44564 | -117.65690 | 5955 ft | 125 kts | 311° |
| 2026-04-25 22:30 | 33.45808 | -117.67148 | 5961 ft | 125 kts | 311° |
| 2026-04-25 22:30 | 33.46431 | -117.67877 | 5955 ft | 125 kts | 311° |
| 2026-04-25 22:30 | 33.47058 | -117.68613 | 5954 ft | 125 kts | 311° |
| 2026-04-25 22:30 | 33.47472 | -117.69099 | 5951 ft | 125 kts | 311° |
| 2026-04-25 22:31 | 33.48307 | -117.70077 | 5956 ft | 126 kts | 311° |
| 2026-04-25 22:31 | 33.48929 | -117.70806 | 5957 ft | 126 kts | 311° |
| 2026-04-25 22:31 | 33.49552 | -117.71539 | 5955 ft | 126 kts | 311° |
| 2026-04-25 22:31 | 33.50184 | -117.72280 | 5949 ft | 126 kts | 311° |
| 2026-04-25 22:32 | 33.50812 | -117.73018 | 5956 ft | 126 kts | 311° |
| 2026-04-25 22:32 | 33.51435 | -117.73751 | 5957 ft | 126 kts | 311° |
| 2026-04-25 22:32 | 33.52064 | -117.74491 | 5959 ft | 126 kts | 311° |
| 2026-04-25 22:32 | 33.52686 | -117.75224 | 5959 ft | 126 kts | 311° |
| 2026-04-25 22:33 | 33.53317 | -117.75967 | 5968 ft | 126 kts | 311° |
| 2026-04-25 22:33 | 33.53943 | -117.76704 | 5969 ft | 125 kts | 310° |
| 2026-04-25 22:33 | 33.54562 | -117.77432 | 5970 ft | 125 kts | 311° |
| 2026-04-25 22:33 | 33.55181 | -117.78161 | 5973 ft | 124 kts | 311° |
| 2026-04-25 22:34 | 33.55796 | -117.78883 | 5975 ft | 124 kts | 310° |
| 2026-04-25 22:34 | 33.56419 | -117.79618 | 5975 ft | 124 kts | 310° |
| 2026-04-25 22:34 | 33.57035 | -117.80341 | 5973 ft | 124 kts | 311° |
| 2026-04-25 22:34 | 33.57652 | -117.81067 | 5973 ft | 125 kts | 311° |
| 2026-04-25 22:35 | 33.58273 | -117.81799 | 5973 ft | 125 kts | 311° |
| 2026-04-25 22:35 | 33.58895 | -117.82530 | 5972 ft | 125 kts | 311° |
| 2026-04-25 22:35 | 33.59514 | -117.83258 | 5972 ft | 125 kts | 311° |
| 2026-04-25 22:35 | 33.60137 | -117.83991 | 5972 ft | 125 kts | 311° |
| 2026-04-25 22:36 | 33.60757 | -117.84722 | 5972 ft | 125 kts | 311° |
| 2026-04-25 22:36 | 33.61381 | -117.85459 | 5971 ft | 125 kts | 310° |
| 2026-04-25 22:36 | 33.62001 | -117.86191 | 5971 ft | 125 kts | 311° |
| 2026-04-25 22:36 | 33.62624 | -117.86926 | 5971 ft | 125 kts | 310° |
| 2026-04-25 22:37 | 33.63238 | -117.87650 | 5974 ft | 125 kts | 311° |
| 2026-04-25 22:37 | 33.63745 | -117.88248 | 5975 ft | 125 kts | 311° |
| 2026-04-25 22:37 | 33.64012 | -117.88563 | 5975 ft | 124 kts | 311° |
| 2026-04-25 22:37 | 33.64471 | -117.89105 | 5972 ft | 125 kts | 311° |
| 2026-04-25 22:38 | 33.65092 | -117.89836 | 5972 ft | 125 kts | 311° |
| 2026-04-25 22:38 | 33.65707 | -117.90562 | 5972 ft | 125 kts | 311° |
| 2026-04-25 22:38 | 33.66331 | -117.91296 | 5972 ft | 125 kts | 311° |
| 2026-04-25 22:38 | 33.66958 | -117.92034 | 5972 ft | 125 kts | 311° |
| 2026-04-25 22:39 | 33.67618 | -117.92700 | 5958 ft | 122 kts | 327° |
| 2026-04-25 22:39 | 33.68362 | -117.93147 | 5549 ft | 124 kts | 332° |
| 2026-04-25 22:39 | 33.69159 | -117.93588 | 5131 ft | 129 kts | 331° |
| 2026-04-25 22:39 | 33.69938 | -117.94016 | 4933 ft | 118 kts | 332° |
| 2026-04-25 22:40 | 33.70684 | -117.94426 | 4546 ft | 119 kts | 332° |
| 2026-04-25 22:40 | 33.71439 | -117.94842 | 4161 ft | 119 kts | 332° |
| 2026-04-25 22:40 | 33.72201 | -117.95267 | 3992 ft | 120 kts | 331° |
| 2026-04-25 22:40 | 33.72943 | -117.95682 | 3972 ft | 117 kts | 330° |
| 2026-04-25 22:41 | 33.73689 | -117.96104 | 3972 ft | 122 kts | 330° |
| 2026-04-25 22:41 | 33.74476 | -117.96546 | 3974 ft | 127 kts | 331° |
| 2026-04-25 22:41 | 33.75299 | -117.97003 | 3971 ft | 131 kts | 332° |
| 2026-04-25 22:41 | 33.76118 | -117.97451 | 3964 ft | 126 kts | 332° |
| 2026-04-25 22:42 | 33.76885 | -117.97869 | 3963 ft | 118 kts | 332° |
| 2026-04-25 22:42 | 33.77616 | -117.98273 | 3965 ft | 112 kts | 331° |
| 2026-04-25 22:42 | 33.78319 | -117.98666 | 3967 ft | 108 kts | 330° |
| 2026-04-25 22:42 | 33.78991 | -117.99045 | 3970 ft | 106 kts | 329° |
| 2026-04-25 22:43 | 33.79653 | -117.99417 | 3972 ft | 104 kts | 329° |
| 2026-04-25 22:43 | 33.80306 | -117.99783 | 3973 ft | 103 kts | 329° |
| 2026-04-25 22:43 | 33.80960 | -118.00148 | 3974 ft | 102 kts | 329° |
| 2026-04-25 22:43 | 33.81610 | -118.00508 | 3975 ft | 102 kts | 329° |
| 2026-04-25 22:44 | 33.82248 | -118.00863 | 3975 ft | 101 kts | 329° |
| 2026-04-25 22:44 | 33.82896 | -118.01222 | 3975 ft | 101 kts | 330° |
| 2026-04-25 22:44 | 33.83532 | -118.01575 | 3975 ft | 101 kts | 329° |
| 2026-04-25 22:44 | 33.84181 | -118.01936 | 3973 ft | 101 kts | 329° |
| 2026-04-25 22:45 | 33.84819 | -118.02289 | 3974 ft | 101 kts | 330° |
| 2026-04-25 22:45 | 33.85464 | -118.02646 | 3954 ft | 104 kts | 330° |
| 2026-04-25 22:45 | 33.86151 | -118.03024 | 3851 ft | 110 kts | 332° |
| 2026-04-25 22:45 | 33.86852 | -118.03399 | 3735 ft | 112 kts | 331° |
| 2026-04-25 22:46 | 33.87573 | -118.03789 | 3611 ft | 113 kts | 332° |
| 2026-04-25 22:46 | 33.88289 | -118.04179 | 3487 ft | 114 kts | 332° |
| 2026-04-25 22:46 | 33.89012 | -118.04576 | 3361 ft | 115 kts | 332° |
| 2026-04-25 22:46 | 33.89748 | -118.04981 | 3232 ft | 116 kts | 332° |
| 2026-04-25 22:47 | 33.90485 | -118.05388 | 3103 ft | 117 kts | 332° |
| 2026-04-25 22:47 | 33.91226 | -118.05796 | 2971 ft | 118 kts | 332° |
| 2026-04-25 22:47 | 33.91972 | -118.06208 | 2842 ft | 118 kts | 332° |
| 2026-04-25 22:47 | 33.92729 | -118.06628 | 2740 ft | 115 kts | 330° |
| 2026-04-25 22:48 | 33.93257 | -118.07248 | 2717 ft | 101 kts | 291° |
| 2026-04-25 22:48 | 33.93391 | -118.08044 | 2651 ft | 97 kts | 267° |
| 2026-04-25 22:48 | 33.93392 | -118.08848 | 2574 ft | 96 kts | 263° |
| 2026-04-25 22:48 | 33.93367 | -118.09661 | 2495 ft | 96 kts | 263° |
| 2026-04-25 22:49 | 33.93339 | -118.10460 | 2415 ft | 96 kts | 262° |
| 2026-04-25 22:49 | 33.93307 | -118.11262 | 2333 ft | 96 kts | 263° |
| 2026-04-25 22:49 | 33.93274 | -118.12067 | 2249 ft | 96 kts | 262° |
| 2026-04-25 22:49 | 33.93238 | -118.12875 | 2167 ft | 95 kts | 262° |
| 2026-04-25 22:50 | 33.93203 | -118.13666 | 2083 ft | 95 kts | 262° |
| 2026-04-25 22:50 | 33.93166 | -118.14462 | 2002 ft | 95 kts | 262° |
| 2026-04-25 22:50 | 33.93132 | -118.15251 | 1919 ft | 94 kts | 262° |
| 2026-04-25 22:50 | 33.93095 | -118.16045 | 1837 ft | 94 kts | 262° |
| 2026-04-25 22:51 | 33.93059 | -118.16829 | 1754 ft | 94 kts | 263° |
| 2026-04-25 22:51 | 33.93025 | -118.17600 | 1674 ft | 93 kts | 262° |
| 2026-04-25 22:51 | 33.92988 | -118.18390 | 1592 ft | 93 kts | 263° |
| 2026-04-25 22:51 | 33.92952 | -118.19150 | 1559 ft | 88 kts | 262° |
| 2026-04-25 22:52 | 33.92921 | -118.19850 | 1589 ft | 79 kts | 260° |
| 2026-04-25 22:52 | 33.92876 | -118.20520 | 1646 ft | 81 kts | 257° |
| 2026-04-25 22:52 | 33.92823 | -118.21222 | 1668 ft | 89 kts | 259° |
| 2026-04-25 22:52 | 33.92779 | -118.22000 | 1662 ft | 97 kts | 262° |
| 2026-04-25 22:53 | 33.92745 | -118.22840 | 1648 ft | 102 kts | 262° |
| 2026-04-25 22:53 | 33.92728 | -118.23699 | 1622 ft | 108 kts | 263° |
| 2026-04-25 22:53 | 33.92701 | -118.24587 | 1467 ft | 102 kts | 263° |
| 2026-04-25 22:53 | 33.92669 | -118.25407 | 1325 ft | 94 kts | 261° |
| 2026-04-25 22:54 | 33.92635 | -118.26163 | 1193 ft | 88 kts | 261° |
| 2026-04-25 22:54 | 33.92599 | -118.26879 | 1073 ft | 85 kts | 262° |
| 2026-04-25 22:54 | 33.92564 | -118.27582 | 957 ft | 82 kts | 262° |
| 2026-04-25 22:54 | 33.92532 | -118.28259 | 849 ft | 80 kts | 262° |
| 2026-04-25 22:55 | 33.92503 | -118.28913 | 753 ft | 75 kts | 261° |
| 2026-04-25 22:55 | 33.92479 | -118.29488 | 683 ft | 61 kts | 261° |
| 2026-04-25 22:55 | 33.92475 | -118.29958 | 574 ft | 56 kts | 257° |
| 2026-04-25 22:55 | 33.92435 | -118.30445 | 500 ft | 64 kts | 254° |
| 2026-04-25 22:56 | 33.92391 | -118.31016 | 416 ft | 72 kts | 258° |
| 2026-04-25 22:56 | 33.92369 | -118.31635 | 315 ft | 73 kts | 260° |
| 2026-04-25 22:56 | 33.92350 | -118.32170 | 206 ft | 60 kts | 258° |
| 2026-04-25 22:56 | 33.92324 | -118.32670 | 110 ft | 59 kts | 259° |
| 2026-04-25 22:57 | 33.92306 | -118.33122 | 62 ft | 44 kts | 261° |
| 2026-04-25 22:57 | 33.92291 | -118.33375 | 61 ft | 22 kts | 274° |
| 2026-04-25 22:57 | 33.92313 | -118.33447 | 60 ft | 2 kts | 340° |
| 2026-04-25 22:57 | 33.92327 | -118.33471 | 61 ft | 10 kts | 253° |
| 2026-04-25 22:58 | 33.92323 | -118.33607 | 61 ft | 15 kts | 262° |
| 2026-04-25 22:58 | 33.92317 | -118.33720 | 61 ft | 11 kts | 265° |
| 2026-04-25 22:58 | 33.92341 | -118.33785 | 63 ft | 0 kts | 274° |